createdAt,value
2019-04-10T00:01:23.756Z,100021.65
2019-04-10T00:04:28.031Z,100020.84
2019-04-10T00:07:31.183Z,100020.84
2019-04-10T00:10:34.748Z,100016.39
2019-04-10T00:13:36.636Z,100023.45
2019-04-10T00:16:40.499Z,100028.82
2019-04-10T00:19:43.555Z,100031.19
2019-04-10T00:22:46.559Z,100023.56
2019-04-10T00:25:48.889Z,100027.73
2019-04-10T00:28:51.823Z,100034.20
2019-04-10T00:31:54.253Z,100031.39
2019-04-10T00:34:56.248Z,100023.52
2019-04-10T00:37:58.206Z,100022.43
2019-04-10T00:41:00.112Z,100025.85
2019-04-10T00:44:02.083Z,100028.23
2019-04-10T00:47:04.470Z,100028.50
2019-04-10T00:50:06.583Z,100029.27
2019-04-10T00:53:08.590Z,100025.92
2019-04-10T00:56:10.641Z,100024.87
2019-04-10T00:59:12.533Z,100019.06
2019-04-10T01:02:14.520Z,100018.38
2019-04-10T01:05:19.357Z,100023.75
2019-04-10T01:08:21.600Z,100020.98
2019-04-10T01:11:23.544Z,100027.23
2019-04-10T01:14:25.550Z,100020.02
2019-04-10T01:17:28.440Z,100025.52
2019-04-10T01:20:31.321Z,100030.45
2019-04-10T01:23:33.584Z,100027.64
2019-04-10T01:26:35.582Z,100020.83
2019-04-10T01:29:37.785Z,100025.41
2019-04-10T01:32:39.945Z,100021.83
2019-04-10T01:35:42.598Z,100025.69
2019-04-10T01:38:46.064Z,100020.06
2019-04-10T01:41:48.386Z,100017.83
2019-04-10T01:44:51.194Z,100033.90
2019-04-10T01:47:53.803Z,100018.42
2019-04-10T01:50:55.701Z,100017.05
2019-04-10T01:53:58.499Z,100021.87
2019-04-10T01:57:00.864Z,100024.72
2019-04-10T02:00:05.384Z,100016.59
2019-04-10T02:03:07.723Z,100020.20
2019-04-10T02:06:09.770Z,100018.84
2019-04-10T02:09:12.710Z,100015.06
2019-04-10T02:12:15.125Z,100016.12
2019-04-10T02:15:17.756Z,100011.16
2019-04-10T02:18:19.870Z,100019.33
2019-04-10T02:21:21.880Z,100018.84
2019-04-10T02:24:25.276Z,100019.16
2019-04-10T02:27:27.312Z,100023.52
2019-04-10T02:30:30.291Z,100026.63
2019-04-10T02:33:33.586Z,100015.73
2019-04-10T02:36:36.233Z,100020.31
2019-04-10T02:39:45.808Z,100018.58
2019-04-10T02:42:43.275Z,100019.02
2019-04-10T02:45:49.216Z,100017.89
2019-04-10T02:48:51.977Z,100011.44
2019-04-10T02:51:54.995Z,100010.41
2019-04-10T02:54:57.863Z,100013.80
2019-04-10T02:58:00.829Z,100012.27
2019-04-10T03:01:03.652Z,100014.29
2019-04-10T03:04:05.712Z,100006.61
2019-04-10T03:07:09.536Z,100013.95
2019-04-10T03:10:21.758Z,100014.39
2019-04-10T03:13:17.783Z,100012.65
2019-04-10T03:16:20.032Z,100011.67
2019-04-10T03:19:21.989Z,100008.36
2019-04-10T03:22:26.360Z,100010.80
2019-04-10T03:25:28.959Z,100009.61
2019-04-10T03:28:32.036Z,100005.52
2019-04-10T03:31:34.558Z,99999.03
2019-04-10T03:34:40.713Z,100002.52
2019-04-10T03:37:40.649Z,100013.89
2019-04-10T03:40:43.719Z,100005.25
2019-04-10T03:43:46.009Z,100020.92
2019-04-10T03:46:48.993Z,100012.59
2019-04-10T03:49:51.946Z,100014.48
2019-04-10T03:52:54.037Z,100013.41
2019-04-10T03:55:56.997Z,100015.05
2019-04-10T03:58:59.911Z,100010.69
2019-04-10T04:02:03.090Z,100006.61
2019-04-10T04:05:06.515Z,100008.84
2019-04-10T04:08:09.027Z,100014.11
2019-04-10T04:11:11.043Z,100016.23
2019-04-10T04:14:12.965Z,100021.40
2019-04-10T04:17:15.764Z,100024.58
2019-04-10T04:20:19.068Z,100016.19
2019-04-10T04:23:21.499Z,100020.60
2019-04-10T04:26:23.789Z,100017.39
2019-04-10T04:29:26.803Z,100024.73
2019-04-10T04:32:29.427Z,100028.48
2019-04-10T04:35:31.388Z,100033.92
2019-04-10T04:38:34.408Z,100038.44
2019-04-10T04:41:36.590Z,100039.15
2019-04-10T04:44:39.838Z,100044.11
2019-04-10T04:47:41.790Z,100047.42
2019-04-10T04:50:44.314Z,100050.00
2019-04-10T04:53:46.269Z,100049.97
2019-04-10T04:56:48.412Z,100047.05
2019-04-10T04:59:50.571Z,100053.37
2019-04-10T05:02:53.701Z,100052.49
2019-04-10T05:05:56.184Z,100056.42
2019-04-10T05:08:59.251Z,100053.66
2019-04-10T05:12:01.327Z,100050.00
2019-04-10T05:15:05.299Z,100053.48
2019-04-10T05:18:07.227Z,100062.80
2019-04-10T05:21:09.195Z,100067.31
2019-04-10T05:24:12.276Z,100058.33
2019-04-10T05:27:14.307Z,100060.28
2019-04-10T05:30:16.479Z,100071.94
2019-04-10T05:33:18.802Z,100070.38
2019-04-10T05:36:21.635Z,100072.30
2019-04-10T05:39:24.467Z,100073.39
2019-04-10T05:42:28.991Z,100079.98
2019-04-10T05:45:31.849Z,100079.98
2019-04-10T05:48:34.013Z,100076.50
2019-04-10T05:51:35.973Z,100077.77
2019-04-10T05:54:37.932Z,100077.00
2019-04-10T05:57:40.645Z,100077.66
2019-04-10T06:00:43.057Z,100062.02
2019-04-10T06:03:45.758Z,100063.72
2019-04-10T06:06:48.513Z,100071.94
2019-04-10T06:09:57.788Z,100082.82
2019-04-10T06:12:55.257Z,100079.08
2019-04-10T06:15:57.260Z,100079.72
2019-04-10T06:18:59.779Z,100075.27
2019-04-10T06:22:02.958Z,100076.42
2019-04-10T06:25:07.912Z,100082.56
2019-04-10T06:28:09.492Z,100078.77
2019-04-10T06:31:12.503Z,100074.45
2019-04-10T06:34:18.306Z,100081.37
2019-04-10T06:37:18.892Z,100079.73
2019-04-10T06:40:24.220Z,100080.98
2019-04-10T06:43:25.219Z,100090.03
2019-04-10T06:46:28.419Z,100089.75
2019-04-10T06:49:31.123Z,100087.72
2019-04-10T06:52:34.499Z,100091.09
2019-04-10T06:55:36.721Z,100087.00
2019-04-10T06:58:38.732Z,100087.20
2019-04-10T07:01:49.524Z,100086.11
2019-04-10T07:04:52.425Z,100087.66
2019-04-10T07:07:54.586Z,100091.30
2019-04-10T07:10:59.204Z,100086.75
2019-04-10T07:13:57.371Z,100090.86
2019-04-10T07:17:05.040Z,100108.72
2019-04-10T07:20:05.241Z,100093.72
2019-04-10T07:23:07.363Z,100092.25
2019-04-10T07:26:10.112Z,100090.55
2019-04-10T07:29:15.611Z,100096.95
2019-04-10T07:32:16.884Z,100098.55
2019-04-10T07:35:20.298Z,100093.18
2019-04-10T07:38:23.126Z,100091.75
2019-04-10T07:41:27.334Z,100097.52
2019-04-10T07:44:29.882Z,100103.20
2019-04-10T07:47:31.807Z,100097.64
2019-04-10T07:50:34.793Z,100098.37
2019-04-10T07:53:37.282Z,100103.87
2019-04-10T07:56:39.653Z,100103.70
2019-04-10T07:59:41.603Z,100109.16
2019-04-10T08:02:43.669Z,100105.69
2019-04-10T08:05:46.045Z,100096.51
2019-04-10T08:08:49.174Z,100110.40
2019-04-10T08:11:51.476Z,100109.27
2019-04-10T08:14:54.045Z,100110.95
2019-04-10T08:17:56.171Z,100112.66
2019-04-10T08:20:59.202Z,100110.54
2019-04-10T08:24:02.488Z,100115.45
2019-04-10T08:27:05.366Z,100124.28
2019-04-10T08:30:10.808Z,100118.81
2019-04-10T08:33:12.007Z,100118.97
2019-04-10T08:36:17.292Z,100124.98
2019-04-10T08:39:35.313Z,100125.20
2019-04-10T08:42:26.649Z,100125.28
2019-04-10T08:45:40.352Z,100120.14
2019-04-10T08:48:33.154Z,100117.80
2019-04-10T08:51:35.357Z,100113.55
2019-04-10T08:54:38.381Z,100116.22
2019-04-10T08:57:41.656Z,100113.53
2019-04-10T09:00:44.861Z,100108.59
2019-04-10T09:03:46.927Z,100110.17
2019-04-10T09:06:51.993Z,100110.02
2019-04-10T09:09:54.192Z,100105.69
2019-04-10T09:12:57.863Z,100110.98
2019-04-10T09:16:00.565Z,100117.47
2019-04-10T09:19:03.495Z,100109.23
2019-04-10T09:22:05.987Z,100106.75
2019-04-10T09:25:09.133Z,100104.81
2019-04-10T09:28:11.665Z,100104.58
2019-04-10T09:31:13.941Z,100110.41
2019-04-10T09:34:16.005Z,100101.27
2019-04-10T09:37:18.065Z,100101.58
2019-04-10T09:40:20.446Z,100097.57
2019-04-10T09:43:23.132Z,100095.08
2019-04-10T09:46:25.315Z,100105.29
2019-04-10T09:49:35.656Z,100093.50
2019-04-10T09:52:32.077Z,100098.17
2019-04-10T09:55:34.214Z,100091.38
2019-04-10T09:58:36.364Z,100098.27
2019-04-10T10:01:38.498Z,100081.58
2019-04-10T10:04:41.691Z,100085.45
2019-04-10T10:07:43.840Z,100083.80
2019-04-10T10:10:47.085Z,100077.98
2019-04-10T10:13:50.169Z,100081.30
2019-04-10T10:16:52.607Z,100079.94
2019-04-10T10:19:55.339Z,100080.70
2019-04-10T10:22:57.806Z,100083.44
2019-04-10T10:25:59.815Z,100095.48
2019-04-10T10:29:02.705Z,100089.67
2019-04-10T10:32:04.754Z,100087.17
2019-04-10T10:35:07.173Z,100094.92
2019-04-10T10:38:10.578Z,100094.66
2019-04-10T10:41:13.030Z,100084.98
2019-04-10T10:44:15.180Z,100087.00
2019-04-10T10:47:17.279Z,100085.86
2019-04-10T10:50:19.334Z,100088.20
2019-04-10T10:53:24.048Z,100089.09
2019-04-10T10:56:26.562Z,100092.70
2019-04-10T10:59:29.416Z,100100.05
2019-04-10T11:02:31.688Z,100098.92
2019-04-10T11:05:35.127Z,100089.20
2019-04-10T11:08:37.358Z,100095.13
2019-04-10T11:11:40.691Z,100083.86
2019-04-10T11:14:43.727Z,100084.22
2019-04-10T11:17:46.107Z,100083.17
2019-04-10T11:20:48.449Z,100091.77
2019-04-10T11:23:50.888Z,100092.94
2019-04-10T11:26:54.039Z,100087.48
2019-04-10T11:29:57.551Z,100099.22
2019-04-10T11:33:00.119Z,100095.95
2019-04-10T11:36:03.683Z,100092.53
2019-04-10T11:42:12.279Z,100087.23
2019-04-10T11:45:17.079Z,100097.05
2019-04-10T11:48:20.103Z,100081.95
2019-04-10T11:51:23.506Z,100106.60
2019-04-10T11:54:28.571Z,100095.30
2019-04-10T12:00:45.363Z,100097.17
2019-04-10T12:03:44.186Z,100103.31
2019-04-10T12:06:47.861Z,100109.22
2019-04-10T12:12:52.462Z,100112.77
2019-04-10T12:15:54.678Z,100107.66
2019-04-10T12:18:57.318Z,100112.55
2019-04-10T12:21:59.411Z,100121.58
2019-04-10T12:25:01.299Z,100111.50
2019-04-10T12:28:03.501Z,100118.73
2019-04-10T12:31:06.022Z,100117.41
2019-04-10T12:34:08.844Z,100120.16
2019-04-10T12:37:11.256Z,100112.44
2019-04-10T12:40:13.961Z,100113.48
2019-04-10T12:43:16.739Z,100112.09
2019-04-10T12:46:19.166Z,100107.41
2019-04-10T12:49:21.379Z,100108.21
2019-04-10T12:52:23.316Z,100106.83
2019-04-10T12:55:26.265Z,100111.77
2019-04-10T12:58:28.881Z,100099.94
2019-04-10T13:01:32.778Z,100106.69
2019-04-10T13:04:35.062Z,100105.49
2019-04-10T13:07:37.958Z,100105.59
2019-04-10T13:10:40.292Z,100099.92
2019-04-10T13:13:42.336Z,100107.63
2019-04-10T13:16:44.707Z,100098.27
2019-04-10T13:19:46.617Z,100111.20
2019-04-10T13:22:48.626Z,100107.72
2019-04-10T13:25:58.281Z,100105.57
2019-04-10T13:28:56.064Z,100098.69
2019-04-10T13:31:59.289Z,100110.48
2019-04-10T13:35:03.981Z,100115.19
2019-04-10T13:38:06.739Z,100118.52
2019-04-10T13:41:10.230Z,100104.22
2019-04-10T13:44:12.732Z,100108.32
2019-04-10T13:47:15.392Z,100106.39
2019-04-10T13:50:18.952Z,100108.91
2019-04-10T13:53:21.704Z,100118.85
2019-04-10T13:56:25.270Z,100112.28
2019-04-10T13:59:27.428Z,100113.34
2019-04-10T14:02:34.324Z,100112.30
2019-04-10T14:05:36.941Z,100106.55
2019-04-10T14:08:58.710Z,100118.66
2019-04-10T14:11:43.671Z,100119.73
2019-04-10T14:14:45.826Z,100129.34
2019-04-10T14:17:48.119Z,100120.86
2019-04-10T14:20:51.249Z,100117.00
2019-04-10T14:23:53.719Z,100116.99
2019-04-10T14:27:03.649Z,100110.42
2019-04-10T14:30:09.363Z,100116.45
2019-04-10T14:33:11.469Z,100125.48
2019-04-10T14:36:13.881Z,100127.39
2019-04-10T14:39:19.396Z,100131.52
2019-04-10T14:42:20.324Z,100128.52
2019-04-10T14:45:23.536Z,100123.30
2019-04-10T14:48:25.619Z,100125.77
2019-04-10T14:51:28.331Z,100125.20
2019-04-10T14:54:30.450Z,100123.55
2019-04-10T14:57:32.470Z,100124.93
2019-04-10T15:00:46.651Z,100118.33
2019-04-10T15:03:48.910Z,100119.45
2019-04-10T15:06:51.770Z,100125.17
2019-04-10T15:09:54.835Z,100121.30
2019-04-10T15:13:07.373Z,100121.59
2019-04-10T15:16:00.929Z,100124.03
2019-04-10T15:19:04.538Z,100119.09
2019-04-10T15:22:07.758Z,100123.72
2019-04-10T15:25:10.857Z,100122.65
2019-04-10T15:28:16.007Z,100132.20
2019-04-10T15:31:18.105Z,100137.96
2019-04-10T15:34:22.475Z,100126.70
2019-04-10T15:37:24.916Z,100136.25
2019-04-10T15:40:30.399Z,100139.28
2019-04-10T15:43:35.041Z,100147.50
2019-04-10T15:46:37.287Z,100143.66
2019-04-10T15:49:40.871Z,100145.27
2019-04-10T15:52:43.450Z,100145.27
2019-04-10T15:55:45.474Z,100150.72
2019-04-10T15:58:49.905Z,100147.70
2019-04-10T16:01:53.202Z,100157.83
2019-04-10T16:04:55.395Z,100155.89
2019-04-10T16:07:57.296Z,100153.16
2019-04-10T16:11:01.572Z,100157.27
2019-04-10T16:14:16.891Z,100150.70
2019-04-10T16:17:22.875Z,100146.53
2019-04-10T16:20:31.565Z,100157.83
2019-04-10T16:23:52.337Z,100153.72
2019-04-10T16:26:54.300Z,100161.10
2019-04-10T16:29:56.628Z,100161.60
2019-04-10T16:32:59.058Z,100160.46
2019-04-10T16:36:01.088Z,100158.52
2019-04-10T16:39:06.529Z,100167.30
2019-04-10T16:42:12.648Z,100171.93
2019-04-10T16:45:18.863Z,100166.98
2019-04-10T16:48:24.637Z,100176.28
2019-04-10T16:51:28.123Z,100168.02
2019-04-10T16:54:31.801Z,100174.55
2019-04-10T16:57:34.715Z,100172.30
2019-04-10T17:00:37.727Z,100169.00
2019-04-10T17:03:40.182Z,100181.58
2019-04-10T17:06:42.189Z,100170.61
2019-04-10T17:09:45.470Z,100181.23
2019-04-10T17:12:48.235Z,100182.83
2019-04-10T17:15:53.512Z,100176.56
2019-04-10T17:18:55.556Z,100184.77
2019-04-10T17:21:58.787Z,100187.48
2019-04-10T17:25:02.082Z,100186.42
2019-04-10T17:28:05.949Z,100200.05
2019-04-10T17:31:09.191Z,100196.80
2019-04-10T17:34:11.911Z,100206.05
2019-04-10T17:37:15.820Z,100193.41
2019-04-10T17:40:30.038Z,100193.94
2019-04-10T17:43:23.376Z,100202.12
2019-04-10T17:46:26.995Z,100201.81
2019-04-10T17:49:29.914Z,100206.98
2019-04-10T17:52:34.718Z,100217.69
2019-04-10T17:55:35.922Z,100219.05
2019-04-10T17:58:43.425Z,100230.52
2019-04-10T18:01:47.283Z,100226.41
2019-04-10T18:04:50.394Z,100228.36
2019-04-10T18:07:52.477Z,100238.72
2019-04-10T18:10:57.282Z,100237.91
2019-04-10T18:14:02.750Z,100245.88
2019-04-10T18:17:09.009Z,100251.89
2019-04-10T18:20:12.273Z,100254.92
2019-04-10T18:23:17.496Z,100262.50
2019-04-10T18:26:21.507Z,100263.32
2019-04-10T18:29:23.605Z,100266.06
2019-04-10T18:32:25.583Z,100265.20
2019-04-10T18:35:27.622Z,100272.35
2019-04-10T18:38:33.309Z,100274.08
2019-04-10T18:41:36.070Z,100272.38
2019-04-10T18:44:39.965Z,100280.01
2019-04-10T18:47:44.059Z,100279.19
2019-04-10T18:50:48.087Z,100289.83
2019-04-10T18:53:51.857Z,100286.27
2019-04-10T18:56:53.832Z,100289.83
2019-04-10T18:59:58.596Z,100285.14
2019-04-10T19:03:05.531Z,100290.03
2019-04-10T19:06:20.517Z,100287.61
2019-04-10T19:09:28.085Z,100293.93
2019-04-10T19:12:32.763Z,100296.67
2019-04-10T19:15:39.922Z,100297.45
2019-04-10T19:18:43.799Z,100300.22
2019-04-10T19:21:48.424Z,100302.14
2019-04-10T19:24:50.810Z,100299.44
2019-04-10T19:27:53.002Z,100299.73
2019-04-10T19:31:09.635Z,100298.41
2019-04-10T19:34:01.016Z,100300.77
2019-04-10T19:37:04.078Z,100301.86
2019-04-10T19:40:08.980Z,100299.95
2019-04-10T19:43:13.815Z,100309.25
2019-04-10T19:46:17.583Z,100307.55
2019-04-10T19:49:19.984Z,100309.98
2019-04-10T19:52:22.449Z,100312.67
2019-04-10T19:55:24.681Z,100309.42
2019-04-10T19:58:26.717Z,100312.41
2019-04-10T20:01:31.255Z,100313.19
2019-04-10T20:04:32.579Z,100316.78
2019-04-10T20:07:35.266Z,100311.00
2019-04-10T20:10:37.458Z,100314.01
2019-04-10T20:13:39.417Z,100315.69
2019-04-10T20:16:43.767Z,100315.10
2019-04-10T20:19:49.060Z,100317.27
2019-04-10T20:22:56.033Z,100318.28
2019-04-10T20:25:58.850Z,100321.53
2019-04-10T20:29:04.619Z,100329.42
2019-04-10T20:32:07.857Z,100318.72
2019-04-10T20:35:11.829Z,100328.25
2019-04-10T20:38:17.544Z,100327.67
2019-04-10T20:41:20.410Z,100332.86
2019-04-10T20:44:22.859Z,100335.76
2019-04-10T20:47:25.307Z,100328.02
2019-04-10T20:50:27.947Z,100337.16
2019-04-10T20:53:29.851Z,100337.89
2019-04-10T20:56:32.983Z,100341.33
2019-04-10T20:59:36.977Z,100335.50
2019-04-10T21:02:39.036Z,100337.70
2019-04-10T21:05:40.954Z,100335.77
2019-04-10T21:08:42.858Z,100345.02
2019-04-10T21:11:57.997Z,100345.52
2019-04-10T21:14:48.658Z,100340.84
2019-04-10T21:17:50.829Z,100353.80
2019-04-10T21:20:53.709Z,100351.97
2019-04-10T21:23:56.497Z,100360.61
2019-04-10T21:26:59.061Z,100353.69
2019-04-10T21:30:03.821Z,100360.18
2019-04-10T21:33:16.493Z,100364.44
2019-04-10T21:36:20.578Z,100367.66
2019-04-10T21:39:22.647Z,100385.34
2019-04-10T21:42:26.533Z,100372.19
2019-04-10T21:45:29.658Z,100370.67
2019-04-10T21:48:32.990Z,100376.36
2019-04-10T21:51:35.176Z,100383.45
2019-04-10T21:54:47.160Z,100389.67
2019-04-10T21:57:40.940Z,100389.48
2019-04-10T22:01:01.381Z,100390.69
2019-04-10T22:04:06.332Z,100387.62
2019-04-10T22:07:26.048Z,100401.77
2019-04-10T22:10:34.214Z,100398.84
2019-04-10T22:13:36.547Z,100400.91
2019-04-10T22:16:38.466Z,100399.97
2019-04-10T22:19:40.994Z,100406.67
2019-04-10T22:22:43.026Z,100411.84
2019-04-10T22:25:45.874Z,100414.34
2019-04-10T22:28:47.939Z,100404.26
2019-04-10T22:31:49.851Z,100415.64
2019-04-10T22:34:52.788Z,100409.81
2019-04-10T22:37:54.953Z,100403.53
2019-04-10T22:40:57.983Z,100408.30
2019-04-10T22:44:01.201Z,100417.72
2019-04-10T22:47:03.529Z,100419.78
2019-04-10T22:50:05.686Z,100407.23
2019-04-10T22:53:08.888Z,100414.58
2019-04-10T22:56:10.998Z,100413.98
2019-04-10T22:59:13.602Z,100411.73
2019-04-10T23:02:16.472Z,100411.13
2019-04-10T23:05:18.665Z,100411.79
2019-04-10T23:08:20.534Z,100416.16
2019-04-10T23:11:34.804Z,100408.81
2019-04-10T23:14:26.942Z,100415.34
2019-04-10T23:17:29.595Z,100404.98
2019-04-10T23:20:32.037Z,100407.10
2019-04-10T23:23:34.934Z,100404.38
2019-04-10T23:26:37.506Z,100395.12
2019-04-10T23:29:40.210Z,100408.20
2019-04-10T23:32:42.297Z,100412.48
2019-04-10T23:35:45.372Z,100416.91
2019-04-10T23:38:49.989Z,100416.56
2019-04-10T23:41:53.427Z,100418.14
2019-04-10T23:44:55.430Z,100417.58
2019-04-10T23:47:58.236Z,100428.27
2019-04-10T23:51:00.883Z,100423.28
2019-04-10T23:54:03.129Z,100427.91
2019-04-10T23:57:05.222Z,100425.27
